Time;durP1;ratioP1;P1;durP2;ratioP2;P2;SDS_P1;SDS_P2;PMS_P1;PMS_P2;Temp;Humidity;BMP_temperature;BMP_pressure;BME280_temperature;BME280_humidity;BME280_pressure;Samples;Min_cycle;Max_cycle;Signal;HPM_P1;HPM_P2
2022/07/02 00:01:25;;;;;;;;;28.00;25.50;;;;;23.84;72.54;101074.55;110871;1264;18876;-83
2022/07/02 00:03:52;;;;;;;;;22.33;21.00;;;;;23.86;72.37;101071.84;110828;1264;19602;-82
2022/07/02 00:06:19;;;;;;;;;23.33;22.00;;;;;23.95;71.95;101075.29;110860;1264;18895;-84
2022/07/02 00:08:47;;;;;;;;;28.00;24.67;;;;;24.01;71.38;101070.70;110769;1264;18841;-83
2022/07/02 00:11:14;;;;;;;;;27.00;23.67;;;;;24.05;71.15;101068.84;110807;1264;22106;-82
2022/07/02 00:13:41;;;;;;;;;24.00;23.00;;;;;24.07;70.91;101067.40;110741;1264;18755;-83
2022/07/02 00:16:09;;;;;;;;;28.00;23.00;;;;;24.04;71.01;101067.45;110829;1264;18925;-82
2022/07/02 00:18:36;;;;;;;;;29.67;24.33;;;;;23.92;71.22;101067.27;110898;1264;20798;-81
2022/07/02 00:21:03;;;;;;;;;22.67;21.67;;;;;23.83;71.39;101072.63;110941;1264;18793;-82
2022/07/02 00:23:30;;;;;;;;;24.33;22.67;;;;;23.80;71.72;101068.63;110827;1264;18857;-83
2022/07/02 00:25:58;;;;;;;;;26.33;24.00;;;;;23.94;71.10;101059.14;110841;1264;19731;-81
2022/07/02 00:28:25;;;;;;;;;26.00;23.00;;;;;23.92;70.82;101055.54;110823;1265;18791;-83
2022/07/02 00:30:52;;;;;;;;;21.67;21.33;;;;;23.94;70.73;101052.15;110806;1264;18961;-84
2022/07/02 00:33:20;;;;;;;;;25.50;23.00;;;;;24.02;70.18;101052.21;110881;1264;19560;-83
2022/07/02 00:35:47;;;;;;;;;22.67;21.67;;;;;24.08;69.62;101048.51;110790;1265;18699;-82
2022/07/02 00:38:14;;;;;;;;;24.33;23.00;;;;;24.08;69.50;101040.45;110807;1264;18931;-83
2022/07/02 00:40:42;;;;;;;;;26.00;23.00;;;;;24.16;69.04;101032.55;110718;1264;19467;-83
2022/07/02 00:43:09;;;;;;;;;27.67;25.00;;;;;24.04;69.14;101028.31;110685;1264;22064;-82
2022/07/02 00:45:36;;;;;;;;;28.33;26.00;;;;;24.08;69.30;101026.17;110849;1264;18917;-81
2022/07/02 00:48:03;;;;;;;;;36.00;33.00;;;;;24.09;68.97;101032.09;110856;1264;21131;-82
2022/07/02 00:50:31;;;;;;;;;27.00;25.67;;;;;23.81;69.93;101041.42;110789;1265;18894;-81
2022/07/02 00:52:58;;;;;;;;;56.33;46.00;;;;;24.02;69.52;101042.27;110835;1264;18832;-82
2022/07/02 00:55:25;;;;;;;;;32.67;30.33;;;;;24.07;69.32;101036.39;110834;1265;19715;-82
2022/07/02 00:57:54;;;;;;;;;32.33;28.33;;;;;23.75;70.08;101035.50;110821;1264;22107;-81
2022/07/02 01:00:21;;;;;;;;;32.67;31.00;;;;;23.87;69.73;101033.78;110851;1264;23384;-82
2022/07/02 01:02:49;;;;;;;;;28.50;27.50;;;;;23.68;70.23;101024.85;110832;1264;19758;-81
2022/07/02 01:05:16;;;;;;;;;29.33;27.67;;;;;23.79;69.98;101026.59;110829;1264;18794;-82
2022/07/02 01:07:43;;;;;;;;;26.00;24.00;;;;;23.64;70.13;101033.11;110795;1264;18891;-83
2022/07/02 01:10:20;;;;;;;;;25.33;23.00;;;;;23.69;70.13;101036.06;110811;1264;21990;-83
2022/07/02 01:12:47;;;;;;;;;25.00;21.00;;;;;23.77;69.97;101038.27;110869;1264;18720;-83
2022/07/02 01:15:14;;;;;;;;;22.33;21.00;;;;;24.01;69.14;101045.71;110884;1264;18902;-82
2022/07/02 01:17:42;;;;;;;;;26.00;24.67;;;;;23.92;69.18;101052.84;110886;1264;19622;-84
2022/07/02 01:20:09;;;;;;;;;29.67;28.67;;;;;23.85;69.21;101060.09;110838;1264;18828;-81
2022/07/02 01:22:37;;;;;;;;;30.00;27.67;;;;;23.80;69.47;101068.17;110933;1264;22163;-82
2022/07/02 01:25:04;;;;;;;;;30.33;25.67;;;;;23.93;69.03;101066.83;110881;1264;21157;-82
2022/07/02 01:27:31;;;;;;;;;24.67;22.67;;;;;24.04;68.70;101071.48;110861;1263;18775;-84
2022/07/02 01:29:59;;;;;;;;;26.33;23.67;;;;;23.89;68.88;101070.81;110841;1264;19125;-83
2022/07/02 01:32:26;;;;;;;;;26.67;24.33;;;;;23.84;69.19;101079.56;110856;1264;19536;-84
2022/07/02 01:34:53;;;;;;;;;24.00;24.00;;;;;23.89;69.15;101083.89;110865;1264;18820;-82
2022/07/02 01:37:21;;;;;;;;;25.00;21.67;;;;;23.94;69.01;101093.00;110768;1264;19217;-81
2022/07/02 01:39:48;;;;;;;;;29.33;23.00;;;;;23.96;68.81;101101.16;110866;1264;19603;-83
2022/07/02 01:42:15;;;;;;;;;29.33;26.33;;;;;23.93;69.04;101101.66;110840;1264;22989;-82
2022/07/02 01:44:42;;;;;;;;;26.67;25.33;;;;;23.86;69.23;101105.73;110798;1265;23056;-82
2022/07/02 01:47:10;;;;;;;;;24.67;22.67;;;;;23.63;69.96;101112.96;110824;1265;19635;-81
2022/07/02 01:49:37;;;;;;;;;29.33;23.00;;;;;23.67;70.15;101118.89;111225;1265;18663;-82
2022/07/02 01:52:04;;;;;;;;;28.00;25.33;;;;;23.67;70.33;101119.11;110820;1264;23674;-82
2022/07/02 01:54:31;;;;;;;;;26.00;24.67;;;;;23.74;70.08;101124.63;110971;1264;19566;-83
2022/07/02 01:56:59;;;;;;;;;26.00;24.67;;;;;23.72;70.21;101130.05;110975;1264;18721;-83
2022/07/02 01:59:26;;;;;;;;;25.33;21.33;;;;;23.59;70.65;101133.28;110898;1265;18867;-82
2022/07/02 02:01:53;;;;;;;;;26.00;21.00;;;;;23.61;70.63;101137.86;110877;1264;19593;-83
2022/07/02 02:04:20;;;;;;;;;24.33;23.00;;;;;23.69;70.58;101139.13;110777;1265;18755;-84
2022/07/02 02:06:48;;;;;;;;;24.50;21.50;;;;;23.77;70.24;101145.85;110859;1264;19262;-81
2022/07/02 02:09:15;;;;;;;;;25.33;21.67;;;;;23.90;69.99;101142.95;111350;1264;19365;-82
2022/07/02 02:11:43;;;;;;;;;27.33;22.00;;;;;23.80;70.22;101144.15;110879;1264;18721;-82
2022/07/02 02:14:10;;;;;;;;;23.00;22.00;;;;;23.78;70.65;101144.78;110746;1264;18800;-82
2022/07/02 02:16:37;;;;;;;;;23.67;22.33;;;;;23.90;70.16;101146.49;110821;1265;23059;-82
2022/07/02 02:19:05;;;;;;;;;21.67;21.00;;;;;23.78;70.49;101147.70;110830;1264;18840;-82
2022/07/02 02:21:32;;;;;;;;;22.00;21.00;;;;;23.65;71.02;101149.41;110890;1263;19148;-81
2022/07/02 02:23:59;;;;;;;;;22.00;21.00;;;;;23.71;71.02;101142.46;110894;1264;19747;-82
2022/07/02 02:26:26;;;;;;;;;22.00;20.00;;;;;23.83;70.64;101139.77;110803;1264;18728;-84
2022/07/02 02:28:55;;;;;;;;;22.00;19.33;;;;;23.96;70.20;101132.85;110759;1264;18977;-82
2022/07/02 02:31:22;;;;;;;;;21.67;21.67;;;;;24.05;69.71;101127.95;110788;1264;20918;-83
2022/07/02 02:33:49;;;;;;;;;25.00;22.00;;;;;24.10;69.47;101126.77;110808;1264;18700;-85
2022/07/02 02:36:16;;;;;;;;;26.00;23.67;;;;;24.13;69.40;101129.27;110834;1264;25122;-84
2022/07/02 02:38:46;;;;;;;;;29.67;27.33;;;;;24.18;69.19;101132.98;110789;1264;19998;-84
2022/07/02 02:41:13;;;;;;;;;32.00;27.00;;;;;24.19;69.12;101132.05;110858;1265;22852;-82
2022/07/02 02:43:40;;;;;;;;;31.67;26.00;;;;;24.16;69.05;101140.01;110834;1264;18946;-81
2022/07/02 02:46:08;;;;;;;;;23.33;22.33;;;;;24.01;69.45;101150.34;110818;1264;19502;-83
2022/07/02 02:48:35;;;;;;;;;27.00;22.00;;;;;24.00;69.57;101153.74;110871;1264;18912;-82
2022/07/02 02:51:03;;;;;;;;;24.67;20.67;;;;;24.04;69.44;101149.90;110897;1264;20541;-83
2022/07/02 02:53:31;;;;;;;;;23.00;20.00;;;;;24.05;69.27;101140.33;110856;1265;19480;-82
2022/07/02 02:55:58;;;;;;;;;20.00;18.00;;;;;24.08;69.30;101139.38;110847;1264;22879;-82
2022/07/02 02:58:26;;;;;;;;;21.00;18.00;;;;;24.12;68.84;101141.10;110879;1264;18890;-82
2022/07/02 03:00:53;;;;;;;;;20.00;18.00;;;;;24.11;68.92;101149.44;110846;1264;22992;-84
2022/07/02 03:03:20;;;;;;;;;18.67;18.00;;;;;24.08;68.84;101152.00;110865;1264;18688;-82
2022/07/02 03:05:47;;;;;;;;;21.00;20.33;;;;;24.06;68.79;101149.39;110859;1264;18926;-83
2022/07/02 03:08:15;;;;;;;;;22.67;19.00;;;;;24.02;68.84;101154.10;110818;1264;19994;-81
2022/07/02 03:10:42;;;;;;;;;20.33;20.00;;;;;24.03;68.79;101158.77;110841;1264;18754;-81
2022/07/02 03:13:09;;;;;;;;;21.67;17.00;;;;;24.05;68.92;101162.04;110886;1264;22202;-82
2022/07/02 03:15:36;;;;;;;;;18.00;17.67;;;;;23.99;68.84;101163.80;110923;1264;19615;-81
2022/07/02 03:18:04;;;;;;;;;20.00;18.00;;;;;23.98;68.81;101152.30;110902;1264;18872;-82
2022/07/02 03:20:32;;;;;;;;;16.00;15.00;;;;;24.00;68.82;101146.77;110823;1264;18893;-83
2022/07/02 03:22:59;;;;;;;;;17.00;16.00;;;;;23.95;68.86;101156.75;110854;1264;19489;-81
2022/07/02 03:25:26;;;;;;;;;16.00;15.33;;;;;23.90;69.05;101161.83;110880;1264;19630;-83
2022/07/02 03:27:54;;;;;;;;;22.00;20.00;;;;;23.95;68.73;101169.09;110889;1264;19015;-83
2022/07/02 03:30:21;;;;;;;;;20.00;18.00;;;;;23.99;68.64;101173.02;110868;1264;23644;-83
2022/07/02 03:32:48;;;;;;;;;18.00;17.00;;;;;23.95;68.75;101179.71;110885;1265;18803;-83
2022/07/02 03:35:16;;;;;;;;;17.33;17.00;;;;;23.92;68.74;101180.98;110887;1264;19002;-82
2022/07/02 03:37:43;;;;;;;;;18.00;16.00;;;;;24.00;68.55;101180.38;110827;1264;19614;-84
2022/07/02 03:40:10;;;;;;;;;18.00;16.33;;;;;24.01;68.65;101179.59;110840;1264;18861;-83
2022/07/02 03:42:37;;;;;;;;;16.67;13.67;;;;;23.98;68.60;101184.44;110843;1264;20148;-81
2022/07/02 03:45:05;;;;;;;;;11.00;11.00;;;;;23.62;69.47;101176.50;110821;1264;19708;-82
2022/07/02 03:47:32;;;;;;;;;14.00;12.00;;;;;23.69;69.70;101177.79;110822;1264;23671;-81
2022/07/02 03:49:59;;;;;;;;;8.00;8.00;;;;;23.84;68.99;101183.45;110817;1264;20305;-82
2022/07/02 03:52:26;;;;;;;;;7.00;7.00;;;;;23.87;68.50;101192.35;110851;1264;19620;-82
2022/07/02 03:54:54;;;;;;;;;7.33;7.00;;;;;23.84;68.22;101199.76;110858;1265;20029;-81
2022/07/02 03:57:21;;;;;;;;;7.00;5.67;;;;;23.79;68.14;101199.19;110911;1264;18871;-83
2022/07/02 03:59:48;;;;;;;;;5.00;5.00;;;;;23.77;68.04;101204.00;110862;1264;19459;-84
2022/07/02 04:02:15;;;;;;;;;5.00;5.00;;;;;23.70;67.63;101205.34;110836;1264;20667;-81
2022/07/02 04:04:43;;;;;;;;;3.67;3.67;;;;;23.70;67.52;101209.30;110874;1264;22144;-84
2022/07/02 04:07:10;;;;;;;;;3.00;3.00;;;;;23.69;67.16;101206.00;110903;1264;19562;-82
2022/07/02 04:09:37;;;;;;;;;3.00;3.00;;;;;23.70;66.89;101207.33;110918;1264;19845;-85
2022/07/02 04:12:05;;;;;;;;;3.00;3.00;;;;;23.75;66.62;101213.28;110931;1264;18722;-82
2022/07/02 04:14:32;;;;;;;;;3.00;3.00;;;;;23.73;66.57;101219.66;110888;1264;19581;-83
2022/07/02 04:17:00;;;;;;;;;3.00;3.00;;;;;23.62;66.53;101226.08;110827;1264;19909;-83
2022/07/02 04:19:28;;;;;;;;;4.33;3.00;;;;;23.50;66.94;101225.08;110820;1265;18732;-83
2022/07/02 04:21:56;;;;;;;;;2.67;2.00;;;;;23.54;66.52;101230.27;110922;1264;20893;-84
2022/07/02 04:24:23;;;;;;;;;2.00;2.00;;;;;23.56;65.99;101231.09;110906;1264;18491;-83
2022/07/02 04:26:50;;;;;;;;;2.00;2.00;;;;;23.59;65.67;101235.72;110825;1264;18817;-83
2022/07/02 04:29:18;;;;;;;;;2.00;2.00;;;;;23.60;65.27;101246.53;110876;1264;19524;-84
2022/07/02 04:31:45;;;;;;;;;2.00;2.00;;;;;23.57;65.13;101249.46;110832;1264;18406;-82
2022/07/02 04:34:13;;;;;;;;;1.00;1.00;;;;;23.51;65.10;101253.48;110697;1264;18709;-82
2022/07/02 04:36:40;;;;;;;;;2.33;2.33;;;;;23.51;64.86;101259.83;110864;1264;19457;-82
2022/07/02 04:39:07;;;;;;;;;5.00;2.00;;;;;23.52;64.69;101260.48;110886;1264;19938;-84
2022/07/02 04:41:34;;;;;;;;;2.00;2.00;;;;;23.51;64.31;101259.80;110882;1264;20751;-83
2022/07/02 04:44:02;;;;;;;;;2.00;2.00;;;;;23.56;64.02;101263.71;110881;1264;19927;-84
2022/07/02 04:46:29;;;;;;;;;2.00;2.00;;;;;23.57;64.01;101269.91;110898;1264;18434;-83
2022/07/02 04:48:56;;;;;;;;;3.00;3.00;;;;;23.47;64.07;101278.67;110845;1265;20323;-83
2022/07/02 04:51:24;;;;;;;;;2.33;2.33;;;;;23.00;64.90;101274.38;110915;1264;20157;-84
2022/07/02 04:53:51;;;;;;;;;2.00;2.00;;;;;23.03;64.92;101281.54;110904;1264;18358;-83
2022/07/02 04:56:18;;;;;;;;;2.00;2.00;;;;;23.03;64.42;101291.58;110865;1264;21719;-82
2022/07/02 04:58:45;;;;;;;;;2.67;2.67;;;;;22.93;64.98;101292.13;110886;1264;22777;-83
2022/07/02 05:01:12;;;;;;;;;2.00;2.00;;;;;23.28;64.30;101297.61;110918;1264;18434;-84
2022/07/02 05:03:40;;;;;;;;;2.00;2.00;;;;;23.54;63.57;101295.58;110827;1264;18864;-84
2022/07/02 05:06:07;;;;;;;;;2.00;2.00;;;;;23.70;63.11;101299.91;110809;1264;19546;-82
2022/07/02 05:08:34;;;;;;;;;3.00;3.00;;;;;23.83;62.60;101300.93;110865;1264;18519;-85
2022/07/02 05:11:01;;;;;;;;;3.00;2.50;;;;;23.95;62.36;101310.92;110838;1264;20365;-85
2022/07/02 05:13:29;;;;;;;;;2.00;2.00;;;;;23.92;62.27;101322.96;110848;1264;19515;-84
2022/07/02 05:15:56;;;;;;;;;3.00;3.00;;;;;23.66;62.83;101333.98;110863;1264;21988;-83
2022/07/02 05:18:24;;;;;;;;;2.33;2.33;;;;;23.64;63.01;101333.86;110915;1264;22341;-83
2022/07/02 05:20:51;;;;;;;;;5.67;5.67;;;;;23.58;62.96;101335.41;110739;1264;19677;-83
2022/07/02 05:23:18;;;;;;;;;6.33;6.33;;;;;23.65;62.66;101342.13;110819;1264;18470;-84
2022/07/02 05:25:46;;;;;;;;;5.00;3.00;;;;;23.57;62.97;101345.95;110625;1264;18794;-85
2022/07/02 05:28:13;;;;;;;;;5.00;5.00;;;;;23.40;62.87;101355.21;110761;1264;20479;-88
2022/07/02 05:30:40;;;;;;;;;5.00;5.00;;;;;23.28;63.01;101361.91;110830;1265;18362;-86
2022/07/02 05:33:07;;;;;;;;;3.67;3.67;;;;;23.22;63.14;101363.41;110803;1265;18707;-84
2022/07/02 05:35:35;;;;;;;;;3.00;3.00;;;;;23.15;63.13;101368.73;110808;1264;19485;-83
2022/07/02 05:38:02;;;;;;;;;2.67;2.67;;;;;23.04;63.13;101373.80;110900;1264;18483;-88
2022/07/02 05:40:30;;;;;;;;;3.00;3.00;;;;;23.02;63.16;101377.72;110850;1264;18746;-88
2022/07/02 05:42:57;;;;;;;;;3.00;3.00;;;;;23.07;62.85;101384.43;110767;1265;19600;-88
2022/07/02 05:45:24;;;;;;;;;3.00;3.00;;;;;22.97;62.85;101389.35;110902;1265;23426;-86
2022/07/02 05:47:52;;;;;;;;;4.33;4.33;;;;;22.88;63.16;101394.19;110883;1264;18704;-90
2022/07/02 05:50:19;;;;;;;;;3.00;3.00;;;;;22.86;63.31;101400.86;110930;1264;19296;-90
2022/07/02 05:52:47;;;;;;;;;5.00;5.00;;;;;22.93;63.13;101401.23;110997;1264;18522;-88
2022/07/02 05:55:14;;;;;;;;;5.00;5.00;;;;;23.07;62.74;101401.63;110680;1264;205387;-87
2022/07/02 05:57:41;;;;;;;;;5.00;5.00;;;;;23.40;62.05;101405.17;110804;1264;21289;-87
2022/07/02 06:00:08;;;;;;;;;4.00;3.00;;;;;23.65;61.35;101410.00;110890;1264;18476;-86
2022/07/02 06:02:36;;;;;;;;;5.00;5.00;;;;;23.78;60.85;101409.38;110852;1264;19183;-87
2022/07/02 06:07:38;;;;;;;;;3.00;3.00;;;;;23.83;60.73;101418.31;110833;1264;19606;-84
2022/07/02 06:07:51;;;;;;;;;5.00;5.00;;;;;23.88;60.44;101429.36;110912;1264;18538;-85
2022/07/02 06:10:19;;;;;;;;;3.00;3.00;;;;;23.94;60.14;101438.25;110992;1264;19639;-85
2022/07/02 06:12:46;;;;;;;;;3.00;3.00;;;;;23.96;60.03;101450.98;110850;1264;19627;-85
2022/07/02 06:15:13;;;;;;;;;3.00;3.00;;;;;24.03;59.80;101458.80;110846;1264;18464;-84
2022/07/02 06:17:41;;;;;;;;;3.67;3.67;;;;;24.06;59.75;101453.48;110856;1264;20105;-86
2022/07/02 06:20:08;;;;;;;;;3.00;3.00;;;;;24.09;59.71;101453.08;110819;1264;19505;-86
2022/07/02 06:22:35;;;;;;;;;3.67;3.00;;;;;24.09;59.33;101455.31;110883;1265;18563;-82
2022/07/02 06:25:02;;;;;;;;;3.00;3.00;;;;;24.00;59.30;101461.41;110771;1264;18899;-81
2022/07/02 06:27:33;;;;;;;;;5.00;5.00;;;;;23.78;59.63;101472.33;110826;1264;19470;-81
2022/07/02 06:30:00;;;;;;;;;3.00;3.00;;;;;23.66;59.76;101471.72;110778;1265;18594;-83
2022/07/02 06:32:28;;;;;;;;;4.33;4.33;;;;;23.70;59.83;101483.45;110829;1264;18780;-84
2022/07/02 06:34:55;;;;;;;;;3.00;3.00;;;;;23.95;59.46;101492.57;110768;1265;19452;-85
2022/07/02 06:37:22;;;;;;;;;5.00;5.00;;;;;24.11;58.89;101499.86;110795;1264;20474;-84
2022/07/02 06:39:50;;;;;;;;;4.33;4.33;;;;;24.22;58.81;101507.84;110895;1264;18775;-82
2022/07/02 06:42:20;;;;;;;;;6.00;6.00;;;;;24.29;58.61;101512.11;110860;1264;19570;-85
2022/07/02 06:44:47;;;;;;;;;5.67;5.67;;;;;24.30;58.64;101505.63;110845;1264;18420;-84
2022/07/02 06:47:15;;;;;;;;;6.00;6.00;;;;;24.35;58.41;101504.80;110833;1264;21684;-85
2022/07/02 06:49:42;;;;;;;;;5.00;5.00;;;;;24.41;58.39;101512.23;110844;1264;19603;-87
2022/07/02 06:52:10;;;;;;;;;5.00;5.00;;;;;24.23;58.46;101509.55;110834;1264;23013;-85
2022/07/02 06:54:37;;;;;;;;;5.00;5.00;;;;;23.84;58.94;101513.20;110963;1264;20218;-82
2022/07/02 06:57:04;;;;;;;;;6.00;6.00;;;;;23.64;59.36;101514.23;110828;1264;22263;-84
2022/07/02 06:59:31;;;;;;;;;3.00;3.00;;;;;23.79;59.30;101519.31;110893;1264;18879;-84
2022/07/02 07:01:59;;;;;;;;;5.00;5.00;;;;;24.05;58.64;101520.11;110921;1264;23603;-88
2022/07/02 07:04:27;;;;;;;;;3.00;3.00;;;;;24.18;58.47;101521.13;110846;1264;20683;-84
2022/07/02 07:06:55;;;;;;;;;3.00;3.00;;;;;24.21;58.24;101518.86;110794;1264;20790;-87
2022/07/02 07:09:22;;;;;;;;;5.00;5.00;;;;;24.29;57.89;101513.98;110849;1264;18821;-87
2022/07/02 07:11:49;;;;;;;;;3.00;3.00;;;;;24.32;57.68;101517.64;111113;1264;22481;-83
2022/07/02 07:14:17;;;;;;;;;5.00;5.00;;;;;24.35;57.57;101517.85;110865;1264;18437;-86
2022/07/02 07:16:44;;;;;;;;;3.00;3.00;;;;;24.30;57.33;101515.20;110871;1264;19254;-84
2022/07/02 07:19:11;;;;;;;;;5.00;5.00;;;;;24.35;57.44;101514.73;110914;1264;19464;-85
2022/07/02 07:21:39;;;;;;;;;5.00;5.00;;;;;24.37;57.50;101516.65;111199;1266;19071;-86
2022/07/02 07:24:06;;;;;;;;;5.33;5.33;;;;;24.36;57.17;101514.76;111067;1264;18758;-82
2022/07/02 07:26:33;;;;;;;;;3.67;3.67;;;;;24.29;57.23;101521.13;110840;1264;20836;-83
2022/07/02 07:29:01;;;;;;;;;26.50;23.00;;;;;24.13;57.43;101529.38;110838;1264;22465;-84
2022/07/02 07:31:28;;;;;;;;;32.00;30.00;;;;;23.96;57.89;101530.29;110785;1265;19162;-83
2022/07/02 07:33:56;;;;;;;;;30.67;29.33;;;;;23.88;58.32;101533.00;110727;1264;26712;-83
2022/07/02 07:36:23;;;;;;;;;26.33;25.00;;;;;23.87;58.40;101533.55;110642;1264;18731;-82
2022/07/02 07:38:50;;;;;;;;;17.00;17.00;;;;;23.77;58.68;101539.65;110621;1264;18992;-85
2022/07/02 07:41:18;;;;;;;;;12.00;11.33;;;;;23.70;58.53;101549.46;110850;1264;19502;-88
2022/07/02 07:43:45;;;;;;;;;11.00;11.00;;;;;23.54;58.82;101559.13;110878;1264;18823;-88
2022/07/02 07:46:12;;;;;;;;;7.67;7.67;;;;;23.62;58.84;101566.88;110825;1264;22827;-86
2022/07/02 07:48:40;;;;;;;;;7.00;7.00;;;;;23.78;58.40;101569.77;110875;1264;19538;-87
2022/07/02 07:51:07;;;;;;;;;7.33;7.00;;;;;23.74;58.15;101572.61;110812;1264;18541;-85
2022/07/02 07:53:34;;;;;;;;;7.00;7.00;;;;;23.68;58.38;101576.77;110776;1264;18848;-84
2022/07/02 07:56:02;;;;;;;;;6.00;6.00;;;;;23.71;58.36;101578.58;110743;1264;20992;-84
2022/07/02 07:58:29;;;;;;;;;10.00;8.00;;;;;23.80;58.23;101575.90;110829;1264;21928;-85
2022/07/02 08:00:57;;;;;;;;;6.00;6.00;;;;;23.81;58.21;101586.08;110835;1264;18863;-84
2022/07/02 08:03:24;;;;;;;;;7.00;7.00;;;;;23.72;58.26;101592.40;110865;1264;19618;-84
2022/07/02 08:05:53;;;;;;;;;8.67;8.67;;;;;23.61;58.51;101591.76;110831;1264;18615;-83
2022/07/02 08:08:21;;;;;;;;;10.00;8.00;;;;;23.62;58.32;101593.81;110808;1264;18823;-80
2022/07/02 08:10:48;;;;;;;;;6.67;6.00;;;;;23.12;59.43;101593.68;110806;1264;19925;-80
2022/07/02 08:13:16;;;;;;;;;7.00;7.00;;;;;22.88;60.35;101599.48;110768;1264;18752;-80
2022/07/02 08:15:43;;;;;;;;;7.67;7.00;;;;;22.79;60.61;101597.71;110886;1264;18692;-84
2022/07/02 08:18:10;;;;;;;;;7.00;6.33;;;;;22.82;60.93;101602.12;110677;1264;23898;-84
2022/07/02 08:20:38;;;;;;;;;7.00;7.00;;;;;23.09;60.65;101605.91;110702;1264;18522;-83
2022/07/02 08:23:05;;;;;;;;;6.67;6.33;;;;;23.39;60.03;101611.05;110636;1264;18681;-83
2022/07/02 08:25:32;;;;;;;;;5.50;5.00;;;;;23.59;59.57;101611.20;110873;1264;22086;-83
2022/07/02 08:27:59;;;;;;;;;5.67;5.67;;;;;23.76;59.08;101617.06;110835;1264;18492;-84
2022/07/02 08:30:27;;;;;;;;;6.00;6.00;;;;;24.06;58.42;101625.09;110872;1263;21671;-85
2022/07/02 08:32:54;;;;;;;;;6.33;6.00;;;;;24.31;57.87;101624.65;110866;1264;19581;-83
2022/07/02 08:35:21;;;;;;;;;6.00;5.00;;;;;24.27;57.64;101629.25;110788;1264;18525;-85
2022/07/02 08:37:49;;;;;;;;;6.00;5.50;;;;;24.27;58.05;101629.96;110781;1265;22195;-85
2022/07/02 08:40:16;;;;;;;;;5.33;5.33;;;;;24.34;57.45;101632.86;110755;1264;19844;-85
2022/07/02 08:42:43;;;;;;;;;5.00;5.00;;;;;24.39;57.36;101631.59;110854;1265;20905;-83
2022/07/02 08:45:10;;;;;;;;;6.00;6.00;;;;;24.34;57.07;101633.18;110797;1264;22890;-84
2022/07/02 08:47:38;;;;;;;;;6.00;5.00;;;;;24.32;56.96;101636.17;110821;1264;19488;-85
2022/07/02 08:50:05;;;;;;;;;5.33;5.33;;;;;24.29;56.84;101634.14;110890;1265;19239;-84
2022/07/02 08:52:32;;;;;;;;;5.33;5.33;;;;;24.23;56.87;101635.31;110859;1264;18836;-85
2022/07/02 08:54:59;;;;;;;;;5.33;5.33;;;;;24.30;56.60;101641.48;110806;1264;19703;-86
2022/07/02 08:57:27;;;;;;;;;6.00;6.00;;;;;24.33;56.61;101647.75;110904;1264;18453;-85
2022/07/02 08:59:54;;;;;;;;;5.00;5.00;;;;;24.32;56.48;101646.02;110850;1264;18758;-85
2022/07/02 09:02:21;;;;;;;;;6.00;6.00;;;;;24.35;56.46;101648.27;110862;1264;19604;-85
2022/07/02 09:04:49;;;;;;;;;10.00;8.00;;;;;24.43;56.14;101650.23;110792;1264;19022;-84
2022/07/02 09:07:16;;;;;;;;;8.00;7.00;;;;;24.40;55.92;101653.32;110930;1264;18720;-82
2022/07/02 09:09:43;;;;;;;;;6.33;6.33;;;;;24.38;56.07;101659.74;110867;1264;21106;-85
2022/07/02 09:12:10;;;;;;;;;6.00;6.00;;;;;24.44;55.97;101659.67;110873;1264;18487;-85
2022/07/02 09:14:38;;;;;;;;;7.00;7.00;;;;;24.45;56.08;101664.13;110861;1264;18829;-82
2022/07/02 09:17:05;;;;;;;;;8.00;8.00;;;;;24.43;55.88;101662.45;110852;1264;19644;-84
2022/07/02 09:19:32;;;;;;;;;8.00;8.00;;;;;24.44;55.78;101661.77;110801;1264;22269;-85
2022/07/02 09:21:59;;;;;;;;;6.67;6.67;;;;;24.43;55.89;101663.17;110794;1264;18775;-84
2022/07/02 09:24:27;;;;;;;;;8.67;8.00;;;;;24.42;55.85;101666.08;110850;1264;23550;-85
2022/07/02 09:26:54;;;;;;;;;9.33;9.33;;;;;24.45;55.72;101665.55;110846;1265;18493;-85
2022/07/02 09:29:21;;;;;;;;;7.67;7.00;;;;;24.44;56.01;101667.45;110886;1264;20154;-85
2022/07/02 09:31:49;;;;;;;;;8.00;8.00;;;;;24.48;55.86;101671.91;110865;1263;22118;-85
2022/07/02 09:34:16;;;;;;;;;9.00;8.00;;;;;24.49;55.81;101672.36;110868;1264;19619;-85
2022/07/02 09:36:43;;;;;;;;;6.00;6.00;;;;;24.42;56.06;101670.85;110896;1264;18756;-84
2022/07/02 09:39:10;;;;;;;;;8.00;7.00;;;;;24.43;55.87;101675.65;110835;1264;19672;-85
2022/07/02 09:41:38;;;;;;;;;6.50;6.50;;;;;24.33;55.99;101681.17;110826;1264;18406;-85
2022/07/02 09:44:05;;;;;;;;;7.00;7.00;;;;;24.35;55.93;101680.39;110846;1264;18703;-86
2022/07/02 09:46:32;;;;;;;;;8.00;8.00;;;;;24.41;55.49;101678.55;110842;1265;19720;-84
2022/07/02 09:49:00;;;;;;;;;8.33;6.67;;;;;24.44;55.38;101674.45;110760;1264;18524;-84
2022/07/02 09:51:27;;;;;;;;;10.67;8.00;;;;;24.48;55.28;101678.30;110867;1264;20957;-85
2022/07/02 09:53:54;;;;;;;;;8.00;7.33;;;;;24.49;55.13;101681.50;110675;1264;21095;-84
2022/07/02 09:56:21;;;;;;;;;6.33;6.00;;;;;24.48;55.22;101679.29;110841;1264;21951;-85
2022/07/02 09:58:49;;;;;;;;;7.00;7.00;;;;;24.48;55.28;101676.09;110871;1265;18622;-85
2022/07/02 10:01:16;;;;;;;;;7.33;7.00;;;;;24.47;55.47;101679.77;110838;1264;19501;-85
2022/07/02 10:03:43;;;;;;;;;6.00;6.00;;;;;24.53;55.45;101680.70;110895;1264;18594;-84
2022/07/02 10:06:10;;;;;;;;;6.00;6.00;;;;;24.57;55.24;101681.20;110757;1264;19205;-84
2022/07/02 10:08:38;;;;;;;;;6.33;6.00;;;;;24.47;55.36;101683.95;110812;1264;20312;-85
2022/07/02 10:11:05;;;;;;;;;7.00;6.00;;;;;24.42;55.33;101688.21;110830;1264;18572;-84
2022/07/02 10:13:32;;;;;;;;;4.00;4.00;;;;;24.42;55.07;101689.62;110863;1264;18797;-85
2022/07/02 10:15:59;;;;;;;;;6.67;6.67;;;;;24.41;54.91;101690.70;110836;1264;26461;-84
2022/07/02 10:18:27;;;;;;;;;8.00;8.00;;;;;24.45;54.79;101692.59;110816;1264;18375;-85
2022/07/02 10:20:56;;;;;;;;;6.00;6.00;;;;;24.52;54.62;101694.67;110818;1264;18890;-84
2022/07/02 10:23:23;;;;;;;;;5.00;5.00;;;;;24.62;54.45;101699.23;110640;1264;20103;-85
2022/07/02 10:25:51;;;;;;;;;6.33;5.67;;;;;24.66;54.07;101700.01;110756;1264;18415;-85
2022/07/02 10:28:18;;;;;;;;;7.00;6.00;;;;;24.64;54.45;101698.00;110821;1264;18926;-86
2022/07/02 10:30:45;;;;;;;;;4.33;4.33;;;;;24.61;54.29;101696.01;110879;1264;19471;-85
2022/07/02 10:33:13;;;;;;;;;6.33;5.00;;;;;24.63;54.00;101701.05;110931;1264;18421;-85
2022/07/02 10:35:40;;;;;;;;;6.00;6.00;;;;;24.65;54.04;101699.96;110870;1264;18801;-86
2022/07/02 10:38:07;;;;;;;;;7.00;7.00;;;;;24.55;53.95;101701.99;110884;1264;19661;-85
2022/07/02 10:40:34;;;;;;;;;13.33;12.00;;;;;24.58;53.88;101705.34;110853;1264;18439;-84
2022/07/02 10:43:02;;;;;;;;;13.00;11.00;;;;;24.60;54.00;101709.51;110828;1264;18965;-86
2022/07/02 10:45:30;;;;;;;;;11.00;9.00;;;;;24.61;54.03;101713.20;110872;1264;19507;-84
2022/07/02 10:47:57;;;;;;;;;11.67;11.00;;;;;24.62;53.99;101710.19;110793;1264;18843;-85
2022/07/02 10:50:24;;;;;;;;;11.67;11.00;;;;;24.55;54.01;101717.92;110845;1265;19076;-84
2022/07/02 10:52:51;;;;;;;;;22.00;18.00;;;;;24.52;54.15;101719.00;110868;1265;19610;-84
2022/07/02 10:55:19;;;;;;;;;16.00;16.00;;;;;24.59;54.05;101719.03;110846;1264;18832;-84
2022/07/02 10:57:46;;;;;;;;;17.00;16.00;;;;;24.59;54.02;101715.73;110949;1265;18876;-85
2022/07/02 11:00:15;;;;;;;;;14.00;14.00;;;;;24.61;54.23;101710.61;110877;1264;20386;-83
2022/07/02 11:02:42;;;;;;;;;12.33;12.00;;;;;24.65;54.02;101715.09;110836;1264;18851;-86
2022/07/02 11:05:10;;;;;;;;;12.00;12.00;;;;;24.61;54.11;101711.14;110853;1264;18977;-85
2022/07/02 11:07:37;;;;;;;;;12.33;11.00;;;;;24.58;54.28;101710.45;110821;1264;20288;-84
2022/07/02 11:10:07;;;;;;;;;10.00;10.00;;;;;24.58;54.27;101712.27;110837;1265;18720;-85